sensor_id;sensor_type;location;lat;lon;timestamp;pressure;altitude;pressure_sealevel;temperature;humidity
41706;BME280;27385;51.096;17.190;2022-08-26T00:00:06;100183.03;;;19.95;90.32
41706;BME280;27385;51.096;17.190;2022-08-26T00:03:00;100182.45;;;19.91;90.54
41706;BME280;27385;51.096;17.190;2022-08-26T00:05:32;100178.10;;;19.86;90.67
41706;BME280;27385;51.096;17.190;2022-08-26T00:08:05;100180.22;;;19.81;90.39
41706;BME280;27385;51.096;17.190;2022-08-26T00:10:38;100170.75;;;19.76;90.71
41706;BME280;27385;51.096;17.190;2022-08-26T00:13:11;100172.23;;;19.73;90.57
41706;BME280;27385;51.096;17.190;2022-08-26T00:15:42;100168.66;;;19.72;90.66
41706;BME280;27385;51.096;17.190;2022-08-26T00:18:15;100164.41;;;19.71;90.36
41706;BME280;27385;51.096;17.190;2022-08-26T00:20:48;100163.97;;;19.69;90.39
41706;BME280;27385;51.096;17.190;2022-08-26T00:23:20;100165.33;;;19.69;90.35
41706;BME280;27385;51.096;17.190;2022-08-26T00:25:52;100161.07;;;19.67;90.39
41706;BME280;27385;51.096;17.190;2022-08-26T00:28:25;100159.44;;;19.64;90.40
41706;BME280;27385;51.096;17.190;2022-08-26T00:30:57;100155.47;;;19.64;90.55
41706;BME280;27385;51.096;17.190;2022-08-26T00:33:29;100159.76;;;19.63;90.45
41706;BME280;27385;51.096;17.190;2022-08-26T00:36:01;100157.02;;;19.61;90.41
41706;BME280;27385;51.096;17.190;2022-08-26T00:38:33;100157.55;;;19.57;90.59
41706;BME280;27385;51.096;17.190;2022-08-26T00:41:05;100155.52;;;19.54;90.54
41706;BME280;27385;51.096;17.190;2022-08-26T00:43:37;100157.88;;;19.48;90.80
41706;BME280;27385;51.096;17.190;2022-08-26T00:46:13;100150.47;;;19.43;90.78
41706;BME280;27385;51.096;17.190;2022-08-26T00:48:48;100150.74;;;19.39;90.91
41706;BME280;27385;51.096;17.190;2022-08-26T00:51:24;100150.83;;;19.34;90.99
41706;BME280;27385;51.096;17.190;2022-08-26T00:53:59;100150.54;;;19.32;90.99
41706;BME280;27385;51.096;17.190;2022-08-26T00:56:35;100153.24;;;19.27;90.81
41706;BME280;27385;51.096;17.190;2022-08-26T00:59:11;100152.23;;;19.23;90.80
41706;BME280;27385;51.096;17.190;2022-08-26T01:01:44;100145.80;;;19.21;90.95
41706;BME280;27385;51.096;17.190;2022-08-26T01:04:19;100146.50;;;19.18;90.88
41706;BME280;27385;51.096;17.190;2022-08-26T01:06:52;100148.65;;;19.16;90.91
41706;BME280;27385;51.096;17.190;2022-08-26T01:09:24;100142.23;;;19.13;90.94
41706;BME280;27385;51.096;17.190;2022-08-26T01:11:58;100141.84;;;19.11;90.94
41706;BME280;27385;51.096;17.190;2022-08-26T01:14:34;100138.41;;;19.10;91.11
41706;BME280;27385;51.096;17.190;2022-08-26T01:17:07;100140.98;;;19.11;91.00
41706;BME280;27385;51.096;17.190;2022-08-26T01:19:43;100141.39;;;19.11;91.34
41706;BME280;27385;51.096;17.190;2022-08-26T01:22:18;100143.45;;;19.10;91.58
41706;BME280;27385;51.096;17.190;2022-08-26T01:24:51;100143.04;;;19.10;91.76
41706;BME280;27385;51.096;17.190;2022-08-26T01:27:23;100147.31;;;19.09;92.12
41706;BME280;27385;51.096;17.190;2022-08-26T01:29:56;100149.39;;;19.06;92.11
41706;BME280;27385;51.096;17.190;2022-08-26T01:32:30;100151.39;;;19.03;92.38
41706;BME280;27385;51.096;17.190;2022-08-26T01:35:02;100151.30;;;18.99;92.49
41706;BME280;27385;51.096;17.190;2022-08-26T01:37:36;100153.58;;;18.96;92.56
41706;BME280;27385;51.096;17.190;2022-08-26T01:40:12;100153.11;;;18.93;92.36
41706;BME280;27385;51.096;17.190;2022-08-26T01:42:48;100151.88;;;18.89;92.32
41706;BME280;27385;51.096;17.190;2022-08-26T01:45:23;100144.68;;;18.86;92.21
41706;BME280;27385;51.096;17.190;2022-08-26T01:47:57;100143.86;;;18.82;92.10
41706;BME280;27385;51.096;17.190;2022-08-26T01:50:31;100141.65;;;18.80;91.92
41706;BME280;27385;51.096;17.190;2022-08-26T01:53:07;100139.84;;;18.76;91.97
41706;BME280;27385;51.096;17.190;2022-08-26T01:55:43;100140.16;;;18.72;91.85
41706;BME280;27385;51.096;17.190;2022-08-26T01:58:23;100140.20;;;18.67;92.02
41706;BME280;27385;51.096;17.190;2022-08-26T02:00:58;100139.70;;;18.63;92.00
41706;BME280;27385;51.096;17.190;2022-08-26T02:03:30;100139.40;;;18.60;92.25
41706;BME280;27385;51.096;17.190;2022-08-26T02:06:06;100140.13;;;18.57;92.40
41706;BME280;27385;51.096;17.190;2022-08-26T02:08:40;100141.91;;;18.55;92.54
41706;BME280;27385;51.096;17.190;2022-08-26T02:11:13;100146.33;;;18.52;92.65
41706;BME280;27385;51.096;17.190;2022-08-26T02:13:47;100141.27;;;18.47;92.68
41706;BME280;27385;51.096;17.190;2022-08-26T02:16:21;100140.59;;;18.44;92.83
41706;BME280;27385;51.096;17.190;2022-08-26T02:18:55;100139.50;;;18.40;92.50
41706;BME280;27385;51.096;17.190;2022-08-26T02:21:27;100141.13;;;18.36;92.62
41706;BME280;27385;51.096;17.190;2022-08-26T02:24:09;100141.96;;;18.34;92.63
41706;BME280;27385;51.096;17.190;2022-08-26T02:26:42;100143.23;;;18.30;92.63
41706;BME280;27385;51.096;17.190;2022-08-26T02:29:19;100144.86;;;18.28;92.56
41706;BME280;27385;51.096;17.190;2022-08-26T02:31:53;100143.52;;;18.25;92.51
41706;BME280;27385;51.096;17.190;2022-08-26T02:34:27;100142.63;;;18.22;92.52
41706;BME280;27385;51.096;17.190;2022-08-26T02:37:00;100143.23;;;18.19;92.67
41706;BME280;27385;51.096;17.190;2022-08-26T02:39:33;100139.95;;;18.15;92.79
41706;BME280;27385;51.096;17.190;2022-08-26T02:42:07;100141.01;;;18.13;92.88
41706;BME280;27385;51.096;17.190;2022-08-26T02:44:38;100140.17;;;18.09;92.84
41706;BME280;27385;51.096;17.190;2022-08-26T02:47:14;100141.27;;;18.08;93.00
41706;BME280;27385;51.096;17.190;2022-08-26T02:49:46;100141.46;;;18.06;93.08
41706;BME280;27385;51.096;17.190;2022-08-26T02:52:18;100139.02;;;18.04;92.93
41706;BME280;27385;51.096;17.190;2022-08-26T02:54:50;100139.62;;;18.01;93.19
41706;BME280;27385;51.096;17.190;2022-08-26T02:57:22;100139.31;;;18.00;93.18
41706;BME280;27385;51.096;17.190;2022-08-26T02:59:53;100136.61;;;17.98;92.98
41706;BME280;27385;51.096;17.190;2022-08-26T03:02:25;100132.79;;;17.97;93.15
41706;BME280;27385;51.096;17.190;2022-08-26T03:04:57;100131.02;;;17.95;92.92
41706;BME280;27385;51.096;17.190;2022-08-26T03:07:28;100130.61;;;17.94;93.61
41706;BME280;27385;51.096;17.190;2022-08-26T03:10:00;100129.96;;;17.93;94.63
41706;BME280;27385;51.096;17.190;2022-08-26T03:12:32;100126.93;;;17.93;94.77
41706;BME280;27385;51.096;17.190;2022-08-26T03:15:04;100126.96;;;17.91;94.59
41706;BME280;27385;51.096;17.190;2022-08-26T03:17:36;100119.85;;;17.89;95.03
41706;BME280;27385;51.096;17.190;2022-08-26T03:20:09;100116.74;;;17.88;94.99
41706;BME280;27385;51.096;17.190;2022-08-26T03:22:40;100116.63;;;17.84;94.64
41706;BME280;27385;51.096;17.190;2022-08-26T03:25:14;100114.45;;;17.81;94.61
41706;BME280;27385;51.096;17.190;2022-08-26T03:27:46;100114.54;;;17.78;94.60
41706;BME280;27385;51.096;17.190;2022-08-26T03:30:18;100112.86;;;17.77;94.95
41706;BME280;27385;51.096;17.190;2022-08-26T03:33:09;100115.52;;;17.74;94.86
41706;BME280;27385;51.096;17.190;2022-08-26T03:35:43;100114.84;;;17.71;94.87
41706;BME280;27385;51.096;17.190;2022-08-26T03:38:16;100115.98;;;17.70;94.69
41706;BME280;27385;51.096;17.190;2022-08-26T03:40:48;100110.79;;;17.66;94.78
41706;BME280;27385;51.096;17.190;2022-08-26T03:43:21;100110.23;;;17.64;94.71
41706;BME280;27385;51.096;17.190;2022-08-26T03:45:55;100107.70;;;17.62;94.68
41706;BME280;27385;51.096;17.190;2022-08-26T03:48:27;100113.52;;;17.60;94.86
41706;BME280;27385;51.096;17.190;2022-08-26T03:50:59;100117.03;;;17.58;94.81
41706;BME280;27385;51.096;17.190;2022-08-26T03:53:30;100115.13;;;17.55;94.85
41706;BME280;27385;51.096;17.190;2022-08-26T03:56:02;100115.00;;;17.53;94.83
41706;BME280;27385;51.096;17.190;2022-08-26T03:58:35;100119.09;;;17.50;95.02
41706;BME280;27385;51.096;17.190;2022-08-26T04:01:06;100122.88;;;17.49;94.97
41706;BME280;27385;51.096;17.190;2022-08-26T04:03:39;100123.39;;;17.49;95.01
41706;BME280;27385;51.096;17.190;2022-08-26T04:06:31;100123.28;;;17.48;94.90
41706;BME280;27385;51.096;17.190;2022-08-26T04:09:06;100119.09;;;17.47;94.92
41706;BME280;27385;51.096;17.190;2022-08-26T04:11:39;100119.73;;;17.45;94.97
41706;BME280;27385;51.096;17.190;2022-08-26T04:14:13;100120.85;;;17.44;94.89
41706;BME280;27385;51.096;17.190;2022-08-26T04:16:45;100117.17;;;17.43;94.95
41706;BME280;27385;51.096;17.190;2022-08-26T04:19:18;100120.92;;;17.43;94.84
41706;BME280;27385;51.096;17.190;2022-08-26T04:21:51;100120.00;;;17.43;95.00
41706;BME280;27385;51.096;17.190;2022-08-26T04:24:24;100120.96;;;17.44;94.96
41706;BME280;27385;51.096;17.190;2022-08-26T04:26:56;100121.06;;;17.45;95.03
41706;BME280;27385;51.096;17.190;2022-08-26T04:29:33;100117.91;;;17.46;95.13
41706;BME280;27385;51.096;17.190;2022-08-26T04:32:06;100118.05;;;17.48;95.23
41706;BME280;27385;51.096;17.190;2022-08-26T04:34:37;100120.52;;;17.50;95.42
41706;BME280;27385;51.096;17.190;2022-08-26T04:37:11;100120.45;;;17.51;95.42
41706;BME280;27385;51.096;17.190;2022-08-26T04:39:43;100122.42;;;17.53;95.60
41706;BME280;27385;51.096;17.190;2022-08-26T04:42:15;100123.39;;;17.55;95.79
41706;BME280;27385;51.096;17.190;2022-08-26T04:44:47;100124.55;;;17.55;96.04
41706;BME280;27385;51.096;17.190;2022-08-26T04:47:19;100124.13;;;17.56;96.23
41706;BME280;27385;51.096;17.190;2022-08-26T04:49:51;100124.02;;;17.58;96.67
41706;BME280;27385;51.096;17.190;2022-08-26T04:52:25;100119.38;;;17.60;96.63
41706;BME280;27385;51.096;17.190;2022-08-26T04:54:56;100122.16;;;17.62;96.79
41706;BME280;27385;51.096;17.190;2022-08-26T04:57:28;100122.39;;;17.65;97.02
41706;BME280;27385;51.096;17.190;2022-08-26T05:00:01;100122.41;;;17.68;96.97
41706;BME280;27385;51.096;17.190;2022-08-26T05:02:33;100119.45;;;17.72;97.16
41706;BME280;27385;51.096;17.190;2022-08-26T05:05:06;100119.70;;;17.76;97.42
41706;BME280;27385;51.096;17.190;2022-08-26T05:07:38;100122.66;;;17.81;97.58
41706;BME280;27385;51.096;17.190;2022-08-26T05:10:10;100121.42;;;17.87;97.75
41706;BME280;27385;51.096;17.190;2022-08-26T05:12:44;100124.59;;;17.92;98.12
41706;BME280;27385;51.096;17.190;2022-08-26T05:15:15;100122.67;;;17.97;98.42
41706;BME280;27385;51.096;17.190;2022-08-26T05:17:47;100122.80;;;18.03;98.60
41706;BME280;27385;51.096;17.190;2022-08-26T05:20:20;100126.50;;;18.07;99.02
41706;BME280;27385;51.096;17.190;2022-08-26T05:22:51;100127.64;;;18.10;99.06
41706;BME280;27385;51.096;17.190;2022-08-26T05:25:23;100121.83;;;18.13;98.95
41706;BME280;27385;51.096;17.190;2022-08-26T05:27:55;100125.81;;;18.19;99.19
41706;BME280;27385;51.096;17.190;2022-08-26T05:30:27;100128.38;;;18.23;99.41
41706;BME280;27385;51.096;17.190;2022-08-26T05:33:00;100128.42;;;18.28;99.54
41706;BME280;27385;51.096;17.190;2022-08-26T05:35:32;100126.23;;;18.34;99.76
41706;BME280;27385;51.096;17.190;2022-08-26T05:38:05;100127.88;;;18.40;100.00
41706;BME280;27385;51.096;17.190;2022-08-26T05:40:39;100123.79;;;18.48;100.00
41706;BME280;27385;51.096;17.190;2022-08-26T05:43:11;100126.38;;;18.56;100.00
41706;BME280;27385;51.096;17.190;2022-08-26T05:45:44;100126.33;;;18.63;100.00
41706;BME280;27385;51.096;17.190;2022-08-26T05:48:18;100125.53;;;18.71;100.00
41706;BME280;27385;51.096;17.190;2022-08-26T05:50:51;100124.03;;;18.82;100.00
41706;BME280;27385;51.096;17.190;2022-08-26T05:53:23;100123.13;;;18.93;100.00
41706;BME280;27385;51.096;17.190;2022-08-26T05:55:55;100122.77;;;19.02;100.00
41706;BME280;27385;51.096;17.190;2022-08-26T05:58:27;100117.49;;;19.12;100.00
41706;BME280;27385;51.096;17.190;2022-08-26T06:01:03;100120.29;;;19.22;100.00
41706;BME280;27385;51.096;17.190;2022-08-26T06:03:38;100123.80;;;19.30;100.00
41706;BME280;27385;51.096;17.190;2022-08-26T06:06:13;100122.68;;;19.40;100.00
41706;BME280;27385;51.096;17.190;2022-08-26T06:08:46;100122.46;;;19.48;100.00
41706;BME280;27385;51.096;17.190;2022-08-26T06:11:19;100123.41;;;19.57;100.00
41706;BME280;27385;51.096;17.190;2022-08-26T06:13:54;100124.13;;;19.65;100.00
41706;BME280;27385;51.096;17.190;2022-08-26T06:16:27;100123.27;;;19.73;100.00
41706;BME280;27385;51.096;17.190;2022-08-26T06:19:00;100120.95;;;19.80;100.00
41706;BME280;27385;51.096;17.190;2022-08-26T06:21:33;100122.65;;;19.88;100.00
41706;BME280;27385;51.096;17.190;2022-08-26T06:24:08;100123.31;;;19.95;100.00
41706;BME280;27385;51.096;17.190;2022-08-26T06:27:08;100124.70;;;20.04;99.98
41706;BME280;27385;51.096;17.190;2022-08-26T06:29:42;100124.23;;;20.12;100.00
41706;BME280;27385;51.096;17.190;2022-08-26T06:32:15;100129.30;;;20.20;100.00
41706;BME280;27385;51.096;17.190;2022-08-26T06:34:47;100129.47;;;20.27;99.88
41706;BME280;27385;51.096;17.190;2022-08-26T06:37:20;100131.35;;;20.32;99.85
41706;BME280;27385;51.096;17.190;2022-08-26T06:39:52;100129.57;;;20.38;99.88
41706;BME280;27385;51.096;17.190;2022-08-26T06:42:23;100129.19;;;20.45;99.82
41706;BME280;27385;51.096;17.190;2022-08-26T06:44:55;100127.76;;;20.52;99.48
41706;BME280;27385;51.096;17.190;2022-08-26T06:47:27;100127.08;;;20.59;99.66
41706;BME280;27385;51.096;17.190;2022-08-26T06:49:59;100128.59;;;20.67;99.58
41706;BME280;27385;51.096;17.190;2022-08-26T06:52:32;100124.42;;;20.73;99.66
41706;BME280;27385;51.096;17.190;2022-08-26T06:55:06;100120.94;;;20.80;99.60
41706;BME280;27385;51.096;17.190;2022-08-26T06:57:37;100119.17;;;20.87;99.47
41706;BME280;27385;51.096;17.190;2022-08-26T07:00:11;100117.15;;;20.93;99.44
41706;BME280;27385;51.096;17.190;2022-08-26T07:02:44;100117.41;;;21.00;99.13
41706;BME280;27385;51.096;17.190;2022-08-26T07:05:15;100117.58;;;21.04;99.01
41706;BME280;27385;51.096;17.190;2022-08-26T07:07:47;100116.55;;;21.09;98.81
41706;BME280;27385;51.096;17.190;2022-08-26T07:10:19;100120.20;;;21.15;98.44
41706;BME280;27385;51.096;17.190;2022-08-26T07:12:51;100120.33;;;21.20;98.74
41706;BME280;27385;51.096;17.190;2022-08-26T07:15:23;100124.95;;;21.26;98.46
41706;BME280;27385;51.096;17.190;2022-08-26T07:17:54;100128.41;;;21.34;98.80
41706;BME280;27385;51.096;17.190;2022-08-26T07:20:26;100128.84;;;21.45;98.75
41706;BME280;27385;51.096;17.190;2022-08-26T07:22:58;100124.39;;;21.54;98.67
41706;BME280;27385;51.096;17.190;2022-08-26T07:25:29;100124.73;;;21.60;97.68
41706;BME280;27385;51.096;17.190;2022-08-26T07:28:01;100128.33;;;21.65;97.33
41706;BME280;27385;51.096;17.190;2022-08-26T07:30:36;100128.03;;;21.72;96.87
41706;BME280;27385;51.096;17.190;2022-08-26T07:33:09;100126.71;;;21.79;96.95
41706;BME280;27385;51.096;17.190;2022-08-26T07:35:41;100127.27;;;21.87;97.11
41706;BME280;27385;51.096;17.190;2022-08-26T07:38:13;100123.89;;;21.95;96.35
41706;BME280;27385;51.096;17.190;2022-08-26T07:40:45;100123.89;;;22.00;96.11
41706;BME280;27385;51.096;17.190;2022-08-26T07:43:17;100126.04;;;22.08;95.49
41706;BME280;27385;51.096;17.190;2022-08-26T07:45:48;100124.26;;;22.14;95.56
41706;BME280;27385;51.096;17.190;2022-08-26T07:48:20;100125.33;;;22.19;94.66
41706;BME280;27385;51.096;17.190;2022-08-26T07:50:51;100123.11;;;22.23;94.12
41706;BME280;27385;51.096;17.190;2022-08-26T07:53:24;100120.83;;;22.28;93.63
41706;BME280;27385;51.096;17.190;2022-08-26T07:55:55;100120.91;;;22.34;93.77
41706;BME280;27385;51.096;17.190;2022-08-26T07:58:28;100115.88;;;22.39;94.02
41706;BME280;27385;51.096;17.190;2022-08-26T08:01:00;100116.14;;;22.49;93.68
41706;BME280;27385;51.096;17.190;2022-08-26T08:03:32;100115.05;;;22.54;93.18
41706;BME280;27385;51.096;17.190;2022-08-26T08:06:04;100119.80;;;22.60;92.50
41706;BME280;27385;51.096;17.190;2022-08-26T08:08:37;100118.29;;;22.67;92.64
41706;BME280;27385;51.096;17.190;2022-08-26T08:11:10;100116.52;;;22.75;92.35
41706;BME280;27385;51.096;17.190;2022-08-26T08:13:42;100118.95;;;22.83;91.98
41706;BME280;27385;51.096;17.190;2022-08-26T08:16:13;100116.35;;;22.88;91.49
41706;BME280;27385;51.096;17.190;2022-08-26T08:21:26;100112.45;;;22.99;90.75
41706;BME280;27385;51.096;17.190;2022-08-26T08:23:58;100113.85;;;23.07;90.14
41706;BME280;27385;51.096;17.190;2022-08-26T08:26:30;100115.30;;;23.14;89.58
41706;BME280;27385;51.096;17.190;2022-08-26T08:29:02;100111.80;;;23.22;89.48
41706;BME280;27385;51.096;17.190;2022-08-26T08:31:34;100113.73;;;23.28;89.03
41706;BME280;27385;51.096;17.190;2022-08-26T08:34:06;100113.55;;;23.35;88.99
41706;BME280;27385;51.096;17.190;2022-08-26T08:36:38;100111.96;;;23.41;88.94
41706;BME280;27385;51.096;17.190;2022-08-26T08:39:10;100112.02;;;23.48;88.38
41706;BME280;27385;51.096;17.190;2022-08-26T08:42:02;100105.05;;;23.54;88.04
41706;BME280;27385;51.096;17.190;2022-08-26T08:44:44;100101.59;;;23.61;87.44
41706;BME280;27385;51.096;17.190;2022-08-26T08:47:23;100102.10;;;23.68;87.54
41706;BME280;27385;51.096;17.190;2022-08-26T08:50:02;100100.95;;;23.77;87.42
41706;BME280;27385;51.096;17.190;2022-08-26T08:52:36;100099.69;;;23.86;86.59
41706;BME280;27385;51.096;17.190;2022-08-26T08:55:13;100100.65;;;23.96;86.00
41706;BME280;27385;51.096;17.190;2022-08-26T08:57:54;100098.24;;;24.05;85.17
41706;BME280;27385;51.096;17.190;2022-08-26T09:00:34;100093.77;;;24.14;85.44
41706;BME280;27385;51.096;17.190;2022-08-26T09:03:17;100094.34;;;24.21;84.39
41706;BME280;27385;51.096;17.190;2022-08-26T09:05:52;100091.39;;;24.31;83.80
41706;BME280;27385;51.096;17.190;2022-08-26T09:08:28;100089.15;;;24.47;83.82
41706;BME280;27385;51.096;17.190;2022-08-26T09:11:04;100090.77;;;24.56;83.24
41706;BME280;27385;51.096;17.190;2022-08-26T09:13:36;100084.98;;;24.66;82.94
41706;BME280;27385;51.096;17.190;2022-08-26T09:16:12;100085.96;;;24.77;81.95
41706;BME280;27385;51.096;17.190;2022-08-26T09:18:58;100090.62;;;24.85;81.22
41706;BME280;27385;51.096;17.190;2022-08-26T09:21:34;100086.05;;;24.91;80.35
41706;BME280;27385;51.096;17.190;2022-08-26T09:24:06;100083.67;;;24.97;80.41
41706;BME280;27385;51.096;17.190;2022-08-26T09:26:46;100081.69;;;25.07;79.93
41706;BME280;27385;51.096;17.190;2022-08-26T09:29:23;100079.95;;;25.14;79.40
41706;BME280;27385;51.096;17.190;2022-08-26T09:32:14;100080.80;;;25.20;78.96
41706;BME280;27385;51.096;17.190;2022-08-26T09:34:56;100074.14;;;25.28;77.49
41706;BME280;27385;51.096;17.190;2022-08-26T09:37:40;100075.17;;;25.35;76.10
41706;BME280;27385;51.096;17.190;2022-08-26T09:40:19;100075.64;;;25.40;75.05
41706;BME280;27385;51.096;17.190;2022-08-26T09:46:16;100075.91;;;25.55;74.01
41706;BME280;27385;51.096;17.190;2022-08-26T09:48:49;100070.14;;;25.61;73.64
41706;BME280;27385;51.096;17.190;2022-08-26T09:51:30;100066.76;;;25.69;73.58
41706;BME280;27385;51.096;17.190;2022-08-26T09:54:03;100064.47;;;25.79;72.99
41706;BME280;27385;51.096;17.190;2022-08-26T09:56:36;100060.23;;;25.93;72.30
41706;BME280;27385;51.096;17.190;2022-08-26T09:59:11;100056.61;;;25.98;70.95
41706;BME280;27385;51.096;17.190;2022-08-26T10:01:44;100052.41;;;25.99;69.51
41706;BME280;27385;51.096;17.190;2022-08-26T10:04:23;100054.23;;;26.00;68.68
41706;BME280;27385;51.096;17.190;2022-08-26T10:07:02;100050.85;;;26.05;68.36
41706;BME280;27385;51.096;17.190;2022-08-26T10:09:38;100052.80;;;26.07;67.66
41706;BME280;27385;51.096;17.190;2022-08-26T10:12:14;100048.06;;;26.12;67.14
41706;BME280;27385;51.096;17.190;2022-08-26T10:14:50;100049.83;;;26.20;66.59
41706;BME280;27385;51.096;17.190;2022-08-26T10:17:30;100049.48;;;26.30;66.84
41706;BME280;27385;51.096;17.190;2022-08-26T10:20:09;100041.06;;;26.40;67.04
41706;BME280;27385;51.096;17.190;2022-08-26T10:22:48;100044.23;;;26.52;66.45
41706;BME280;27385;51.096;17.190;2022-08-26T10:25:25;100043.64;;;26.59;65.66
41706;BME280;27385;51.096;17.190;2022-08-26T10:28:05;100040.50;;;26.62;65.91
41706;BME280;27385;51.096;17.190;2022-08-26T10:30:44;100039.85;;;26.70;65.94
41706;BME280;27385;51.096;17.190;2022-08-26T10:33:17;100036.89;;;26.72;64.44
41706;BME280;27385;51.096;17.190;2022-08-26T10:35:52;100034.70;;;26.74;64.14
41706;BME280;27385;51.096;17.190;2022-08-26T10:38:29;100032.68;;;26.75;63.85
41706;BME280;27385;51.096;17.190;2022-08-26T10:41:07;100028.95;;;26.79;62.90
41706;BME280;27385;51.096;17.190;2022-08-26T10:43:44;100029.77;;;26.82;62.62
41706;BME280;27385;51.096;17.190;2022-08-26T10:46:22;100025.17;;;26.85;61.64
41706;BME280;27385;51.096;17.190;2022-08-26T10:48:57;100023.21;;;26.93;61.59
41706;BME280;27385;51.096;17.190;2022-08-26T10:51:34;100021.79;;;27.03;61.65
41706;BME280;27385;51.096;17.190;2022-08-26T10:54:14;100017.33;;;27.10;61.37
41706;BME280;27385;51.096;17.190;2022-08-26T10:56:51;100018.21;;;27.14;59.60
41706;BME280;27385;51.096;17.190;2022-08-26T10:59:38;100014.08;;;27.20;59.48
41706;BME280;27385;51.096;17.190;2022-08-26T11:02:16;100011.42;;;27.22;59.49
41706;BME280;27385;51.096;17.190;2022-08-26T11:04:53;100011.00;;;27.27;59.18
41706;BME280;27385;51.096;17.190;2022-08-26T11:07:35;100008.22;;;27.30;57.55
41706;BME280;27385;51.096;17.190;2022-08-26T11:10:54;100004.78;;;27.35;57.73
41706;BME280;27385;51.096;17.190;2022-08-26T11:16:40;99996.80;;;27.41;56.91
41706;BME280;27385;51.096;17.190;2022-08-26T11:22:07;99998.29;;;27.42;55.09
41706;BME280;27385;51.096;17.190;2022-08-26T11:24:57;99990.10;;;27.46;54.77
41706;BME280;27385;51.096;17.190;2022-08-26T11:28:03;99991.52;;;27.51;54.67
41706;BME280;27385;51.096;17.190;2022-08-26T11:30:47;99985.44;;;27.60;54.54
41706;BME280;27385;51.096;17.190;2022-08-26T11:36:55;99982.98;;;27.69;53.59
41706;BME280;27385;51.096;17.190;2022-08-26T11:39:29;99977.48;;;27.73;52.62
41706;BME280;27385;51.096;17.190;2022-08-26T11:42:08;99978.64;;;27.74;52.67
41706;BME280;27385;51.096;17.190;2022-08-26T11:44:46;99974.44;;;27.76;52.18
41706;BME280;27385;51.096;17.190;2022-08-26T11:47:26;99974.63;;;27.78;52.17
41706;BME280;27385;51.096;17.190;2022-08-26T11:50:13;99973.46;;;27.84;52.63
41706;BME280;27385;51.096;17.190;2022-08-26T11:52:54;99975.19;;;27.88;51.47
41706;BME280;27385;51.096;17.190;2022-08-26T11:55:31;99969.06;;;27.89;50.62
41706;BME280;27385;51.096;17.190;2022-08-26T11:58:04;99969.48;;;27.96;49.94
41706;BME280;27385;51.096;17.190;2022-08-26T12:00:49;99966.19;;;28.04;50.32
41706;BME280;27385;51.096;17.190;2022-08-26T12:03:24;99967.02;;;28.08;50.21
41706;BME280;27385;51.096;17.190;2022-08-26T12:05:58;99960.40;;;28.10;49.89
41706;BME280;27385;51.096;17.190;2022-08-26T12:08:30;99956.28;;;28.12;49.75
41706;BME280;27385;51.096;17.190;2022-08-26T12:11:07;99952.27;;;28.14;49.95
41706;BME280;27385;51.096;17.190;2022-08-26T12:13:51;99950.59;;;28.17;49.65
41706;BME280;27385;51.096;17.190;2022-08-26T12:16:26;99946.36;;;28.18;49.29
41706;BME280;27385;51.096;17.190;2022-08-26T12:18:59;99942.30;;;28.19;49.42
41706;BME280;27385;51.096;17.190;2022-08-26T12:21:31;99938.86;;;28.21;49.50
41706;BME280;27385;51.096;17.190;2022-08-26T12:24:04;99939.55;;;28.23;49.49
41706;BME280;27385;51.096;17.190;2022-08-26T12:26:37;99936.04;;;28.24;49.02
41706;BME280;27385;51.096;17.190;2022-08-26T12:29:21;99936.74;;;28.26;49.32
41706;BME280;27385;51.096;17.190;2022-08-26T12:32:08;99934.56;;;28.28;48.47
41706;BME280;27385;51.096;17.190;2022-08-26T12:34:43;99929.86;;;28.30;48.18
41706;BME280;27385;51.096;17.190;2022-08-26T12:37:16;99926.42;;;28.30;48.30
41706;BME280;27385;51.096;17.190;2022-08-26T12:39:50;99929.77;;;28.31;47.95
41706;BME280;27385;51.096;17.190;2022-08-26T12:42:40;99926.33;;;28.33;48.06
41706;BME280;27385;51.096;17.190;2022-08-26T12:45:13;99923.57;;;28.34;48.17
41706;BME280;27385;51.096;17.190;2022-08-26T12:47:59;99917.02;;;28.37;48.23
41706;BME280;27385;51.096;17.190;2022-08-26T12:50:35;99916.27;;;28.41;48.16
41706;BME280;27385;51.096;17.190;2022-08-26T12:53:16;99918.48;;;28.43;48.12
41706;BME280;27385;51.096;17.190;2022-08-26T12:55:52;99913.14;;;28.46;47.77
41706;BME280;27385;51.096;17.190;2022-08-26T12:58:27;99910.33;;;28.48;47.06
41706;BME280;27385;51.096;17.190;2022-08-26T13:01:20;99905.76;;;28.53;46.89
41706;BME280;27385;51.096;17.190;2022-08-26T13:03:53;99897.63;;;28.55;47.32
41706;BME280;27385;51.096;17.190;2022-08-26T13:06:29;99899.41;;;28.58;47.55
41706;BME280;27385;51.096;17.190;2022-08-26T13:12:00;99889.29;;;28.65;46.86
41706;BME280;27385;51.096;17.190;2022-08-26T13:14:32;99885.50;;;28.67;46.69
41706;BME280;27385;51.096;17.190;2022-08-26T13:17:05;99886.77;;;28.68;47.05
41706;BME280;27385;51.096;17.190;2022-08-26T13:19:37;99880.37;;;28.71;47.46
41706;BME280;27385;51.096;17.190;2022-08-26T13:22:11;99881.56;;;28.72;47.36
41706;BME280;27385;51.096;17.190;2022-08-26T13:24:44;99879.02;;;28.73;47.20
41706;BME280;27385;51.096;17.190;2022-08-26T13:27:17;99877.21;;;28.73;47.20
41706;BME280;27385;51.096;17.190;2022-08-26T13:29:52;99872.14;;;28.75;47.21
41706;BME280;27385;51.096;17.190;2022-08-26T13:32:24;99871.94;;;28.74;47.06
41706;BME280;27385;51.096;17.190;2022-08-26T13:34:57;99864.30;;;28.74;47.09
41706;BME280;27385;51.096;17.190;2022-08-26T13:37:29;99858.54;;;28.76;47.02